Time;durP1;ratioP1;P1;durP2;ratioP2;P2;SDS_P1;SDS_P2;PMS_P1;PMS_P2;Temp;Humidity;BMP_temperature;BMP_pressure;BME280_temperature;BME280_humidity;BME280_pressure;Samples;Min_cycle;Max_cycle;Signal;HPM_P1;HPM_P2
2023/12/16 00:00:48;;;;;;;117.20;51.83;;;-0.80;99.90;;;;;;5033516;28;20475;-75
2023/12/16 00:03:14;;;;;;;126.30;54.47;;;-0.80;99.90;;;;;;5022045;28;20030;-75
2023/12/16 00:05:39;;;;;;;143.55;64.20;;;-0.80;99.90;;;;;;5037901;28;20055;-74
2023/12/16 00:08:05;;;;;;;130.85;58.20;;;-0.80;99.90;;;;;;5032018;28;20029;-74
2023/12/16 00:10:31;;;;;;;115.43;51.50;;;-0.80;99.90;;;;;;5031944;28;20037;-75
2023/12/16 00:12:56;;;;;;;101.40;49.60;;;-0.80;99.90;;;;;;5033145;28;20021;-78
2023/12/16 00:15:22;;;;;;;110.55;52.78;;;-0.70;99.90;;;;;;5031544;28;20491;-75
2023/12/16 00:17:47;;;;;;;118.05;52.90;;;-0.70;99.90;;;;;;5033076;28;20056;-77
2023/12/16 00:20:13;;;;;;;110.35;55.40;;;-0.70;99.90;;;;;;5032152;28;20029;-74
2023/12/16 00:22:39;;;;;;;123.97;56.45;;;-0.70;99.90;;;;;;5033031;28;20075;-78
2023/12/16 00:25:09;;;;;;;117.80;54.40;;;-0.70;99.90;;;;;;5031546;28;20502;-77
2023/12/16 00:27:35;;;;;;;118.63;52.08;;;-0.70;99.90;;;;;;5026188;28;20022;-78
2023/12/16 00:30:01;;;;;;;113.82;51.00;;;-0.60;99.90;;;;;;5032916;28;20100;-78
2023/12/16 00:32:26;;;;;;;111.00;53.10;;;-0.60;99.90;;;;;;5030940;28;20188;-75
2023/12/16 00:34:52;;;;;;;116.85;52.65;;;-0.60;99.90;;;;;;5030287;28;20490;-77
2023/12/16 00:37:18;;;;;;;111.68;51.88;;;-0.60;99.90;;;;;;5030447;28;20030;-76
2023/12/16 00:39:43;;;;;;;108.78;52.53;;;-0.60;99.90;;;;;;5032790;28;20101;-78
2023/12/16 00:42:09;;;;;;;118.90;51.30;;;-0.60;99.90;;;;;;5030405;28;20518;-74
2023/12/16 00:44:35;;;;;;;106.82;53.20;;;-0.60;99.90;;;;;;5032729;28;20363;-74
2023/12/16 00:47:00;;;;;;;109.63;52.22;;;-0.60;99.90;;;;;;5032457;28;20022;-75
2023/12/16 00:49:27;;;;;;;103.03;52.65;;;-0.60;99.90;;;;;;5032738;28;20108;-77
2023/12/16 00:51:52;;;;;;;115.68;53.40;;;-0.60;99.90;;;;;;5027847;28;20021;-77
2023/12/16 00:54:18;;;;;;;102.38;49.85;;;-0.60;99.90;;;;;;5028193;28;20029;-77
2023/12/16 00:56:44;;;;;;;99.65;47.03;;;-0.60;99.90;;;;;;5029889;28;20033;-74
2023/12/16 00:59:09;;;;;;;96.03;49.80;;;-0.50;99.90;;;;;;5032468;28;20113;-77
2023/12/16 01:01:35;;;;;;;99.60;47.45;;;-0.50;99.90;;;;;;5032269;28;20024;-78
2023/12/16 01:04:00;;;;;;;102.13;47.60;;;-0.50;99.90;;;;;;5032279;28;20096;-74
2023/12/16 01:06:26;;;;;;;108.15;55.45;;;-0.50;99.90;;;;;;5029310;28;20018;-77
2023/12/16 01:08:52;;;;;;;121.05;56.10;;;-0.50;99.90;;;;;;5031195;28;20021;-77
2023/12/16 01:11:17;;;;;;;112.30;48.78;;;-0.50;99.90;;;;;;5047608;28;20462;-77
2023/12/16 01:13:43;;;;;;;89.60;44.33;;;-0.50;99.90;;;;;;5027855;28;20071;-78
2023/12/16 01:16:09;;;;;;;258.25;117.00;;;-0.50;99.90;;;;;;5026093;28;20041;-77
2023/12/16 01:18:35;;;;;;;193.13;74.65;;;-0.50;99.90;;;;;;5032264;28;20075;-78
2023/12/16 01:21:05;;;;;;;124.75;48.25;;;-0.50;99.90;;;;;;5047591;28;20025;-74
2023/12/16 01:23:30;;;;;;;122.82;48.83;;;-0.50;99.90;;;;;;5032381;28;20155;-74
2023/12/16 01:25:56;;;;;;;109.13;45.08;;;-0.50;99.90;;;;;;5031126;28;20093;-77
2023/12/16 01:28:22;;;;;;;104.82;47.83;;;-0.40;99.90;;;;;;5031863;28;20489;-77
2023/12/16 01:30:47;;;;;;;102.50;46.10;;;-0.40;99.90;;;;;;5047225;28;20627;-77
2023/12/16 01:33:14;;;;;;;90.00;42.15;;;-0.50;99.90;;;;;;5030588;28;20045;-75
2023/12/16 01:35:40;;;;;;;84.60;42.80;;;-0.40;99.90;;;;;;5031712;28;20034;-74
2023/12/16 01:38:05;;;;;;;92.93;42.15;;;-0.40;99.90;;;;;;5032254;28;20427;-74
2023/12/16 01:40:31;;;;;;;80.82;40.58;;;-0.50;99.90;;;;;;5028504;28;20034;-72
2023/12/16 01:42:56;;;;;;;81.57;39.95;;;-0.40;99.90;;;;;;5031999;28;20017;-77
2023/12/16 01:45:22;;;;;;;83.78;40.35;;;-0.40;99.90;;;;;;5048242;28;20029;-74
2023/12/16 01:47:48;;;;;;;86.22;40.65;;;-0.40;99.90;;;;;;5035943;28;20024;-78
2023/12/16 01:50:14;;;;;;;84.65;42.80;;;-0.40;99.90;;;;;;5051146;28;20383;-75
2023/12/16 01:52:44;;;;;;;81.53;38.50;;;-0.40;99.90;;;;;;5035933;28;20540;-77
2023/12/16 01:55:14;;;;;;;114.72;57.58;;;-0.40;99.90;;;;;;5035436;28;20028;-78
2023/12/16 01:57:40;;;;;;;85.53;43.20;;;-0.40;99.90;;;;;;5035837;28;20029;-75
2023/12/16 02:00:06;;;;;;;81.40;40.45;;;-0.40;99.90;;;;;;5035672;28;20052;-78
2023/12/16 02:02:33;;;;;;;85.07;40.33;;;-0.50;99.90;;;;;;5035383;28;20031;-74
2023/12/16 02:04:59;;;;;;;87.85;43.05;;;-0.50;99.90;;;;;;5035349;28;20025;-77
2023/12/16 02:07:25;;;;;;;79.40;38.60;;;-0.50;99.90;;;;;;5021542;28;20061;-74
2023/12/16 02:09:51;;;;;;;84.20;40.42;;;-0.50;99.90;;;;;;5026767;28;20078;-74
2023/12/16 02:12:19;;;;;;;77.60;39.95;;;-0.40;99.90;;;;;;5035395;28;20025;-74
2023/12/16 02:14:45;;;;;;;87.65;44.47;;;-0.50;99.90;;;;;;5026491;28;20032;-78
2023/12/16 02:17:10;;;;;;;77.28;39.47;;;-0.40;99.90;;;;;;5032698;28;20037;-74
2023/12/16 02:19:38;;;;;;;88.70;43.17;;;-0.40;99.90;;;;;;5035089;28;20017;-78
2023/12/16 02:22:03;;;;;;;81.43;41.42;;;-0.40;99.90;;;;;;5035160;28;20425;-74
2023/12/16 02:24:31;;;;;;;81.88;40.95;;;-0.40;99.90;;;;;;5031194;28;20100;-77
2023/12/16 02:26:57;;;;;;;87.55;40.58;;;-0.50;99.90;;;;;;5015832;28;20406;-75
2023/12/16 02:29:23;;;;;;;90.93;43.92;;;-0.40;99.90;;;;;;5026994;28;20108;-74
2023/12/16 02:31:49;;;;;;;88.53;42.30;;;-0.40;99.90;;;;;;5050401;28;20045;-74
2023/12/16 02:34:15;;;;;;;83.88;40.67;;;-0.40;99.90;;;;;;5034965;28;20080;-78
2023/12/16 02:36:40;;;;;;;86.30;41.15;;;-0.40;99.90;;;;;;5035154;28;20101;-78
2023/12/16 02:39:06;;;;;;;86.60;43.55;;;-0.40;99.90;;;;;;5035030;28;20017;-75
2023/12/16 02:41:32;;;;;;;93.20;42.53;;;-0.40;99.90;;;;;;5050433;28;20382;-78
2023/12/16 02:43:57;;;;;;;87.72;43.58;;;-0.40;99.90;;;;;;5034954;28;20026;-74
2023/12/16 02:46:24;;;;;;;86.70;42.70;;;-0.40;99.90;;;;;;5034731;28;20384;-78
2023/12/16 02:48:50;;;;;;;333.35;121.82;;;-0.40;99.90;;;;;;5035109;28;20100;-78
2023/12/16 02:51:19;;;;;;;174.88;67.95;;;-0.40;99.90;;;;;;5032384;28;20014;-78
2023/12/16 02:53:45;;;;;;;116.55;48.83;;;-0.40;99.90;;;;;;5034892;28;20029;-78
2023/12/16 02:56:12;;;;;;;100.10;47.92;;;-0.40;99.90;;;;;;5034231;28;20398;-78
2023/12/16 02:58:39;;;;;;;88.15;44.08;;;-0.40;99.90;;;;;;5033784;28;20060;-78
2023/12/16 03:01:05;;;;;;;97.47;48.38;;;-0.30;99.90;;;;;;5033484;28;20383;-75
2023/12/16 03:03:31;;;;;;;92.30;45.92;;;-0.40;99.90;;;;;;5031499;28;20018;-74
2023/12/16 03:05:57;;;;;;;86.03;41.92;;;-0.40;99.90;;;;;;5034688;28;20021;-74
2023/12/16 03:08:22;;;;;;;85.63;41.58;;;-0.30;99.90;;;;;;5034537;28;20040;-75
2023/12/16 03:10:48;;;;;;;82.60;37.70;;;-0.30;99.90;;;;;;5033474;28;20021;-76
2023/12/16 03:13:14;;;;;;;80.38;37.95;;;-0.30;99.90;;;;;;5024823;28;20017;-78
2023/12/16 03:15:39;;;;;;;82.47;39.22;;;-0.30;99.90;;;;;;5032979;28;20566;-79
2023/12/16 03:18:05;;;;;;;84.90;37.25;;;-0.30;99.90;;;;;;5032799;28;20426;-78
2023/12/16 03:20:30;;;;;;;76.32;38.60;;;-0.40;99.90;;;;;;5022328;28;20532;-75
2023/12/16 03:22:56;;;;;;;181.25;88.13;;;-0.40;99.90;;;;;;5029522;28;20467;-78
2023/12/16 03:25:23;;;;;;;102.90;49.42;;;-0.30;99.90;;;;;;5024969;28;20036;-78
2023/12/16 03:27:48;;;;;;;88.38;43.55;;;-0.30;99.90;;;;;;5034228;28;20092;-75
2023/12/16 03:30:14;;;;;;;80.35;39.50;;;-0.30;99.90;;;;;;5034418;28;20104;-75
2023/12/16 03:32:39;;;;;;;76.65;39.92;;;-0.40;99.90;;;;;;5032614;28;20068;-74
2023/12/16 03:35:06;;;;;;;78.60;39.40;;;-0.30;99.90;;;;;;5034523;28;20026;-74
2023/12/16 03:37:31;;;;;;;86.20;41.40;;;-0.30;99.90;;;;;;5030021;28;20118;-75
2023/12/16 03:39:57;;;;;;;85.72;39.70;;;-0.30;99.90;;;;;;5033791;28;20101;-78
2023/12/16 03:42:22;;;;;;;85.10;40.83;;;-0.30;99.90;;;;;;5049280;28;20108;-78
2023/12/16 03:44:48;;;;;;;82.18;40.70;;;-0.30;99.90;;;;;;5033997;28;20025;-74
2023/12/16 03:47:14;;;;;;;81.80;40.78;;;-0.30;99.90;;;;;;5049029;28;20049;-77
2023/12/16 03:49:40;;;;;;;90.18;41.20;;;-0.30;99.90;;;;;;5033800;28;20040;-78
2023/12/16 03:52:07;;;;;;;99.20;43.85;;;-0.30;99.90;;;;;;5014049;28;20018;-74
2023/12/16 03:54:32;;;;;;;107.47;47.95;;;-0.30;99.90;;;;;;5023333;28;20017;-74
2023/12/16 03:56:58;;;;;;;97.90;43.53;;;-0.30;99.90;;;;;;5033384;28;20403;-74
2023/12/16 03:59:23;;;;;;;84.43;39.13;;;-0.30;99.90;;;;;;5033704;28;20029;-74
2023/12/16 04:01:49;;;;;;;93.13;45.55;;;-0.30;99.90;;;;;;5030417;28;20424;-74
2023/12/16 04:04:15;;;;;;;88.43;40.92;;;-0.30;99.90;;;;;;5049023;28;20032;-75
2023/12/16 04:06:44;;;;;;;80.07;39.50;;;-0.30;99.90;;;;;;5033361;28;20179;-78
2023/12/16 04:09:10;;;;;;;85.05;41.90;;;-0.30;99.90;;;;;;5029035;28;20022;-73
2023/12/16 04:11:36;;;;;;;83.43;39.17;;;-0.30;99.90;;;;;;5033275;28;20029;-77
2023/12/16 04:14:01;;;;;;;79.40;39.38;;;-0.20;99.90;;;;;;5033471;28;20021;-78
2023/12/16 04:16:27;;;;;;;86.80;41.75;;;-0.20;99.90;;;;;;5033290;28;20079;-75
2023/12/16 04:18:53;;;;;;;128.23;64.38;;;-0.20;99.90;;;;;;5033181;28;20057;-74
2023/12/16 04:21:18;;;;;;;110.32;55.20;;;-0.20;99.90;;;;;;5033043;28;20028;-78
2023/12/16 04:23:44;;;;;;;87.90;40.58;;;-0.20;99.90;;;;;;5033466;28;20052;-78
2023/12/16 04:26:10;;;;;;;92.47;41.70;;;-0.20;99.90;;;;;;5028649;28;20030;-78
2023/12/16 04:28:36;;;;;;;85.68;39.28;;;-0.20;99.90;;;;;;5024697;28;20108;-74
2023/12/16 04:31:02;;;;;;;79.72;37.97;;;-0.20;99.90;;;;;;5033220;28;20021;-74
2023/12/16 04:33:27;;;;;;;81.10;40.15;;;-0.20;99.90;;;;;;5031201;28;20099;-74
2023/12/16 04:35:53;;;;;;;81.95;39.13;;;-0.20;99.90;;;;;;5033053;28;20026;-74
2023/12/16 04:38:18;;;;;;;79.00;38.45;;;-0.10;99.90;;;;;;5031839;28;20025;-74
2023/12/16 04:40:44;;;;;;;82.68;40.40;;;-0.10;99.90;;;;;;5032833;28;20026;-78
2023/12/16 04:43:10;;;;;;;82.97;39.72;;;-0.10;99.90;;;;;;5032794;28;20017;-78
2023/12/16 04:45:36;;;;;;;150.52;64.50;;;-0.10;99.90;;;;;;5032924;28;20018;-74
2023/12/16 04:48:01;;;;;;;107.85;47.85;;;-0.10;99.90;;;;;;5032654;28;20124;-74
2023/12/16 04:50:27;;;;;;;93.97;42.30;;;-0.10;99.90;;;;;;5028266;28;20483;-77
2023/12/16 04:52:53;;;;;;;76.95;39.28;;;-0.10;99.90;;;;;;5037828;28;20052;-78
2023/12/16 04:55:18;;;;;;;91.32;41.08;;;-0.10;99.90;;;;;;5028065;28;20025;-78
2023/12/16 04:57:44;;;;;;;88.35;40.40;;;-0.10;99.90;;;;;;5030265;28;20021;-74
2023/12/16 05:00:11;;;;;;;82.68;40.20;;;0.00;99.90;;;;;;5047964;28;20024;-75
2023/12/16 05:02:36;;;;;;;78.78;39.17;;;0.00;99.90;;;;;;5032695;28;20044;-74
2023/12/16 05:05:02;;;;;;;80.13;37.25;;;0.00;99.90;;;;;;5032656;28;20021;-78
2023/12/16 05:07:28;;;;;;;71.50;36.28;;;0.00;99.90;;;;;;5032656;28;20067;-74
2023/12/16 05:09:53;;;;;;;79.07;36.45;;;0.00;99.90;;;;;;5032401;28;20100;-74
2023/12/16 05:12:19;;;;;;;81.25;39.15;;;0.00;99.90;;;;;;5032882;28;20545;-77
2023/12/16 05:14:44;;;;;;;147.57;76.35;;;0.00;99.90;;;;;;5022029;28;20032;-78
2023/12/16 05:17:10;;;;;;;103.03;48.78;;;0.00;99.90;;;;;;5032360;28;20034;-74
2023/12/16 05:19:36;;;;;;;81.30;39.30;;;0.00;99.90;;;;;;5032407;28;20379;-74
2023/12/16 05:22:01;;;;;;;77.22;36.20;;;0.00;99.90;;;;;;5036328;28;20433;-78
2023/12/16 05:24:27;;;;;;;69.30;35.95;;;0.00;99.90;;;;;;5035127;28;20021;-78
2023/12/16 05:26:53;;;;;;;64.25;32.72;;;0.00;99.90;;;;;;5034077;28;20029;-78
2023/12/16 05:29:18;;;;;;;72.68;35.22;;;0.00;99.90;;;;;;5036717;28;20021;-74
2023/12/16 05:31:44;;;;;;;68.25;33.55;;;0.00;99.90;;;;;;5036419;28;20048;-78
2023/12/16 05:34:10;;;;;;;68.72;33.72;;;0.00;99.90;;;;;;5031841;28;20434;-74
2023/12/16 05:36:36;;;;;;;151.00;67.18;;;0.00;99.90;;;;;;5034670;28;20032;-74
2023/12/16 05:39:01;;;;;;;98.18;48.03;;;0.00;99.90;;;;;;5036453;28;20093;-75
2023/12/16 05:41:27;;;;;;;83.93;39.17;;;-0.10;99.90;;;;;;5036012;28;20021;-78
2023/12/16 05:43:53;;;;;;;69.53;34.42;;;-0.10;99.90;;;;;;5051656;28;20035;-78
2023/12/16 05:46:18;;;;;;;71.03;34.80;;;-0.10;99.90;;;;;;5036003;28;20021;-74
2023/12/16 05:48:44;;;;;;;74.30;35.08;;;-0.10;99.90;;;;;;5031707;28;20121;-78
2023/12/16 05:51:10;;;;;;;64.35;33.35;;;-0.10;99.90;;;;;;5032921;28;20413;-79
2023/12/16 05:53:35;;;;;;;68.00;35.10;;;-0.10;99.90;;;;;;5036044;28;20026;-74
2023/12/16 05:56:05;;;;;;;72.25;34.97;;;-0.10;99.90;;;;;;5035779;28;20030;-78
2023/12/16 05:58:31;;;;;;;72.72;36.13;;;-0.10;99.90;;;;;;5035747;28;20022;-74
2023/12/16 06:00:56;;;;;;;130.45;65.30;;;-0.10;99.90;;;;;;5035719;28;20014;-74
2023/12/16 06:03:22;;;;;;;133.27;62.28;;;-0.10;99.90;;;;;;5035615;28;20534;-78
2023/12/16 06:05:48;;;;;;;79.93;37.03;;;0.00;99.90;;;;;;5035624;28;20016;-78
2023/12/16 06:08:13;;;;;;;80.28;38.17;;;-0.10;99.90;;;;;;5035768;28;20387;-78
2023/12/16 06:10:39;;;;;;;66.40;33.88;;;-0.10;99.90;;;;;;5050949;28;20103;-74
2023/12/16 06:13:05;;;;;;;68.50;37.90;;;-0.10;99.90;;;;;;5051019;28;20360;-78
2023/12/16 06:15:30;;;;;;;73.07;36.08;;;-0.10;99.90;;;;;;5035337;28;20029;-78
2023/12/16 06:17:57;;;;;;;84.00;39.45;;;-0.10;99.90;;;;;;5035655;28;20541;-78
2023/12/16 06:20:23;;;;;;;118.95;53.00;;;-0.10;99.90;;;;;;5047146;28;20387;-78
2023/12/16 06:22:48;;;;;;;86.10;41.72;;;-0.10;99.90;;;;;;5044051;28;20025;-78
2023/12/16 06:25:14;;;;;;;93.15;45.75;;;-0.10;99.90;;;;;;5042202;28;20025;-78
2023/12/16 06:27:40;;;;;;;447.77;169.18;;;0.00;99.90;;;;;;5050082;28;20418;-74
2023/12/16 06:30:08;;;;;;;119.47;51.92;;;0.00;99.90;;;;;;5034943;28;20480;-74
2023/12/16 06:32:34;;;;;;;115.63;49.40;;;-0.10;99.90;;;;;;5034841;28;20049;-78
2023/12/16 06:35:00;;;;;;;95.50;41.92;;;0.00;99.90;;;;;;5030293;28;20108;-74
2023/12/16 06:37:25;;;;;;;87.50;40.00;;;0.00;99.90;;;;;;5030695;28;20029;-78
2023/12/16 06:39:51;;;;;;;95.63;43.88;;;-0.10;99.90;;;;;;5034479;28;20383;-77
2023/12/16 06:42:16;;;;;;;145.55;52.38;;;-0.10;99.90;;;;;;5031694;28;20442;-76
2023/12/16 06:44:42;;;;;;;86.15;38.28;;;0.00;99.90;;;;;;5034313;28;20036;-78
2023/12/16 06:47:08;;;;;;;87.22;37.83;;;0.00;99.90;;;;;;5031670;28;20493;-73
2023/12/16 06:49:33;;;;;;;73.63;35.15;;;0.00;99.90;;;;;;5025970;28;20017;-77
2023/12/16 06:51:59;;;;;;;77.43;40.20;;;-0.10;99.90;;;;;;5025332;28;20034;-74
2023/12/16 06:54:24;;;;;;;115.65;58.97;;;0.00;99.90;;;;;;5033830;28;20034;-74
2023/12/16 06:56:50;;;;;;;86.35;40.92;;;0.00;99.90;;;;;;5032951;28;20030;-73
2023/12/16 06:59:17;;;;;;;84.38;38.53;;;0.00;99.90;;;;;;5041670;28;20114;-74
2023/12/16 07:01:44;;;;;;;96.72;39.92;;;0.00;99.90;;;;;;5031122;28;20479;-75
2023/12/16 07:04:09;;;;;;;68.97;33.28;;;0.00;99.90;;;;;;5020829;28;20037;-74
2023/12/16 07:06:36;;;;;;;79.65;38.30;;;0.00;99.90;;;;;;5023568;28;20018;-74
2023/12/16 07:09:02;;;;;;;81.70;37.88;;;0.00;99.90;;;;;;5028276;28;20030;-75
2023/12/16 07:11:28;;;;;;;83.97;35.30;;;0.00;99.90;;;;;;5028514;28;20395;-74
2023/12/16 07:13:53;;;;;;;77.20;35.35;;;0.00;99.90;;;;;;5028988;28;20014;-74
2023/12/16 07:16:19;;;;;;;153.20;70.10;;;0.00;99.90;;;;;;5033994;28;20557;-74
2023/12/16 07:18:45;;;;;;;120.35;54.30;;;0.00;99.90;;;;;;5034182;28;20526;-74
2023/12/16 07:21:10;;;;;;;87.25;42.47;;;0.00;99.90;;;;;;5032827;28;20418;-75
2023/12/16 07:23:36;;;;;;;79.45;37.95;;;0.00;99.90;;;;;;5033823;28;20060;-74
2023/12/16 07:26:02;;;;;;;74.50;36.58;;;0.00;99.90;;;;;;5032318;28;20072;-75
2023/12/16 07:28:28;;;;;;;74.47;36.08;;;0.00;99.90;;;;;;5033306;28;20030;-74
2023/12/16 07:30:54;;;;;;;80.32;36.30;;;0.00;99.90;;;;;;5033915;28;20026;-74
2023/12/16 07:33:20;;;;;;;77.57;37.42;;;0.00;99.90;;;;;;5033566;28;20513;-74
2023/12/16 07:35:45;;;;;;;81.82;38.75;;;0.00;99.90;;;;;;5029130;28;20084;-74
2023/12/16 07:38:11;;;;;;;76.10;34.83;;;0.00;99.90;;;;;;5027476;28;20072;-75
2023/12/16 07:40:36;;;;;;;96.97;47.42;;;0.00;99.90;;;;;;5028169;28;20026;-74
2023/12/16 07:43:02;;;;;;;86.75;42.80;;;0.00;99.90;;;;;;5016326;28;20476;-75
2023/12/16 07:45:28;;;;;;;70.15;36.03;;;0.10;99.90;;;;;;5018649;28;20033;-74
2023/12/16 07:47:54;;;;;;;71.80;33.30;;;0.00;99.90;;;;;;5033221;28;20030;-75
2023/12/16 07:50:21;;;;;;;72.05;32.35;;;0.10;99.90;;;;;;5033488;28;20017;-79
2023/12/16 07:52:47;;;;;;;65.28;33.95;;;0.10;99.90;;;;;;5048054;28;20071;-79
2023/12/16 07:55:13;;;;;;;72.13;34.50;;;0.10;99.90;;;;;;5031410;28;20021;-78
2023/12/16 07:57:39;;;;;;;64.90;33.70;;;0.10;99.90;;;;;;5032929;28;20525;-79
2023/12/16 08:00:05;;;;;;;67.75;31.77;;;0.10;99.90;;;;;;5036105;28;20026;-74
2023/12/16 08:02:31;;;;;;;79.55;37.72;;;0.10;99.90;;;;;;5027059;28;20037;-75
2023/12/16 08:04:57;;;;;;;73.20;34.15;;;0.10;99.90;;;;;;5028823;28;20022;-74
2023/12/16 08:07:22;;;;;;;68.53;34.97;;;0.10;99.90;;;;;;5028421;28;20111;-75
2023/12/16 08:09:49;;;;;;;65.78;33.58;;;0.20;99.90;;;;;;5021871;28;20037;-75
2023/12/16 08:12:15;;;;;;;62.55;30.90;;;0.20;99.90;;;;;;5045346;28;20040;-74
2023/12/16 08:14:40;;;;;;;70.75;32.78;;;0.20;99.90;;;;;;5030604;28;20025;-74
2023/12/16 08:17:06;;;;;;;71.82;31.92;;;0.20;99.90;;;;;;5033686;28;20033;-74
2023/12/16 08:19:32;;;;;;;66.53;30.55;;;0.20;99.90;;;;;;5032780;28;20030;-73
2023/12/16 08:22:00;;;;;;;61.75;31.13;;;0.20;99.90;;;;;;5032750;28;20069;-74
2023/12/16 08:24:26;;;;;;;67.20;31.88;;;0.30;99.90;;;;;;5014570;28;20028;-73
2023/12/16 08:26:51;;;;;;;65.70;34.35;;;0.30;99.90;;;;;;5013148;28;20093;-73
2023/12/16 08:29:18;;;;;;;64.13;30.65;;;0.30;99.90;;;;;;5025125;28;20594;-77
2023/12/16 08:31:44;;;;;;;57.60;28.13;;;0.30;99.90;;;;;;5023400;28;20426;-77
2023/12/16 08:34:09;;;;;;;69.05;31.73;;;0.30;99.90;;;;;;5028796;28;20081;-78
2023/12/16 08:36:35;;;;;;;68.22;30.02;;;0.30;99.90;;;;;;5024905;28;20062;-78
2023/12/16 08:39:01;;;;;;;61.65;31.60;;;0.30;99.90;;;;;;5024026;28;20022;-78
2023/12/16 08:41:27;;;;;;;73.30;32.72;;;0.30;99.90;;;;;;5026192;28;20072;-77
2023/12/16 08:43:53;;;;;;;65.63;32.45;;;0.40;99.90;;;;;;5028207;28;20391;-78
2023/12/16 08:46:23;;;;;;;69.95;32.03;;;0.40;99.90;;;;;;5031453;28;20052;-78
2023/12/16 08:48:48;;;;;;;65.97;31.05;;;0.40;99.90;;;;;;5025743;28;20061;-78
2023/12/16 08:51:21;;;;;;;81.38;39.70;;;0.40;99.90;;;;;;5032525;28;20029;-78
2023/12/16 08:53:47;;;;;;;73.38;33.70;;;0.50;99.90;;;;;;5031166;28;20449;-77
2023/12/16 08:56:13;;;;;;;64.47;30.90;;;0.50;99.90;;;;;;5025556;28;20033;-73
2023/12/16 08:58:39;;;;;;;76.10;35.78;;;0.50;99.90;;;;;;5026076;28;20045;-73
2023/12/16 09:01:06;;;;;;;69.07;34.03;;;0.50;99.90;;;;;;5026221;28;20049;-77
2023/12/16 09:03:31;;;;;;;64.05;31.08;;;0.50;99.90;;;;;;5030428;28;20025;-77
2023/12/16 09:05:57;;;;;;;106.55;49.10;;;0.50;99.90;;;;;;5034189;28;20491;-77
2023/12/16 09:08:23;;;;;;;92.68;42.70;;;0.60;99.90;;;;;;5017823;28;20092;-77
2023/12/16 09:10:48;;;;;;;68.97;33.75;;;0.60;99.90;;;;;;5031234;28;20029;-79
2023/12/16 09:13:14;;;;;;;63.13;32.55;;;0.60;99.90;;;;;;5029985;28;20556;-78
2023/12/16 09:15:40;;;;;;;65.72;32.63;;;0.60;99.90;;;;;;5030881;28;20068;-78
2023/12/16 09:18:06;;;;;;;57.20;30.70;;;0.60;99.90;;;;;;5030032;28;20109;-78
2023/12/16 09:20:31;;;;;;;52.22;26.75;;;0.70;99.90;;;;;;5026437;28;20025;-78
2023/12/16 09:22:59;;;;;;;59.15;29.52;;;0.70;99.90;;;;;;5025410;28;20025;-78
2023/12/16 09:25:24;;;;;;;61.47;30.77;;;0.70;99.90;;;;;;5029217;28;20029;-78
2023/12/16 09:27:50;;;;;;;61.33;31.42;;;0.70;99.90;;;;;;5023469;28;20048;-78
2023/12/16 09:30:18;;;;;;;65.82;28.33;;;0.80;99.90;;;;;;5028751;28;20025;-78
2023/12/16 09:32:46;;;;;;;58.22;29.63;;;0.80;99.90;;;;;;5015162;28;20129;-77
2023/12/16 09:35:12;;;;;;;59.85;29.20;;;0.80;99.90;;;;;;5036959;28;20032;-78
2023/12/16 09:37:38;;;;;;;61.20;27.77;;;0.90;99.90;;;;;;5024371;28;20037;-78
2023/12/16 09:40:03;;;;;;;59.17;26.10;;;0.90;99.90;;;;;;5031202;28;20025;-77
2023/12/16 09:42:29;;;;;;;61.97;27.88;;;0.90;99.90;;;;;;5027080;28;20030;-78
2023/12/16 09:44:57;;;;;;;60.00;27.73;;;0.90;99.90;;;;;;5033479;28;20026;-77
2023/12/16 09:47:24;;;;;;;58.78;29.65;;;1.00;99.90;;;;;;5025429;28;20064;-78
2023/12/16 09:49:52;;;;;;;61.67;28.92;;;1.00;99.90;;;;;;5029665;28;20029;-80
2023/12/16 09:52:18;;;;;;;52.80;29.38;;;1.00;99.90;;;;;;5014606;28;20026;-81
2023/12/16 09:54:43;;;;;;;58.65;29.55;;;1.00;99.90;;;;;;5025584;28;20021;-81
2023/12/16 09:57:11;;;;;;;49.50;26.90;;;1.00;99.90;;;;;;5046282;28;20388;-79
2023/12/16 09:59:39;;;;;;;54.22;26.67;;;1.10;99.90;;;;;;5030746;28;20067;-80
2023/12/16 10:02:28;;;;;;;58.38;28.90;;;1.10;99.90;;;;;;5024886;28;20053;-78
2023/12/16 10:04:56;;;;;;;58.80;29.15;;;1.10;99.90;;;;;;5029352;28;20038;-79
2023/12/16 10:07:22;;;;;;;53.35;25.83;;;1.10;99.90;;;;;;5031885;28;20064;-80
2023/12/16 10:09:48;;;;;;;59.40;27.88;;;1.10;99.90;;;;;;5033034;28;20045;-81
2023/12/16 10:12:14;;;;;;;62.55;30.15;;;1.20;99.90;;;;;;5029229;28;20033;-80
2023/12/16 10:14:47;;;;;;;65.05;31.90;;;1.20;99.90;;;;;;5031220;28;20047;-80
2023/12/16 10:17:15;;;;;;;62.60;30.98;;;1.20;99.90;;;;;;5024786;28;20125;-81
2023/12/16 10:19:43;;;;;;;187.95;79.78;;;1.20;99.90;;;;;;5030108;28;20083;-81
2023/12/16 10:22:10;;;;;;;180.27;74.70;;;1.30;99.90;;;;;;5031146;28;20571;-81
2023/12/16 10:24:37;;;;;;;217.75;86.70;;;1.30;99.90;;;;;;5026737;28;20387;-81
2023/12/16 10:27:04;;;;;;;553.67;217.77;;;1.30;99.90;;;;;;5034413;28;20380;-81
2023/12/16 10:29:32;;;;;;;269.13;95.65;;;1.30;99.90;;;;;;5032508;28;20392;-80
2023/12/16 10:31:58;;;;;;;488.55;177.70;;;1.40;99.90;;;;;;5030886;28;20019;-80
2023/12/16 10:34:26;;;;;;;424.13;145.32;;;1.40;99.90;;;;;;5032974;28;20029;-79
2023/12/16 10:36:52;;;;;;;196.13;67.47;;;1.40;99.90;;;;;;5026597;28;20123;-79
2023/12/16 10:39:18;;;;;;;172.85;58.72;;;1.40;99.90;;;;;;5034316;28;20101;-79
2023/12/16 10:41:43;;;;;;;106.70;41.55;;;1.50;99.90;;;;;;5030651;28;20026;-79
2023/12/16 10:44:09;;;;;;;105.68;38.85;;;1.50;99.90;;;;;;5030638;28;20048;-80
2023/12/16 10:46:37;;;;;;;114.40;43.75;;;1.50;99.90;;;;;;5030993;28;20028;-79
2023/12/16 10:49:07;;;;;;;138.60;55.83;;;1.60;99.90;;;;;;5032640;28;20018;-80
2023/12/16 10:51:37;;;;;;;143.05;53.95;;;1.60;99.90;;;;;;5032597;28;20029;-80
2023/12/16 10:54:09;;;;;;;94.35;39.80;;;1.60;99.90;;;;;;5032266;28;20147;-81
2023/12/16 10:56:38;;;;;;;227.27;69.82;;;1.60;99.90;;;;;;5026178;28;20029;-80
2023/12/16 10:59:05;;;;;;;123.57;45.20;;;1.70;99.90;;;;;;5028354;28;20025;-80
2023/12/16 11:01:41;;;;;;;179.98;58.35;;;1.60;99.90;;;;;;5030239;28;20068;-81
2023/12/16 11:04:16;;;;;;;129.50;47.00;;;1.70;99.90;;;;;;5031361;28;20025;-81
2023/12/16 11:06:56;;;;;;;115.93;40.83;;;1.70;99.90;;;;;;5027700;28;20099;-81
2023/12/16 11:09:21;;;;;;;92.82;36.70;;;1.70;99.90;;;;;;5027355;28;20022;-80
2023/12/16 11:11:48;;;;;;;86.90;36.75;;;1.70;99.90;;;;;;5041059;28;20036;-80
2023/12/16 11:14:15;;;;;;;86.35;35.45;;;1.70;99.90;;;;;;5029571;28;20510;-80
2023/12/16 11:16:53;;;;;;;71.18;32.97;;;1.80;99.90;;;;;;5026918;28;20087;-80
2023/12/16 11:19:21;;;;;;;86.50;35.72;;;1.80;99.90;;;;;;5031748;28;20581;-80
2023/12/16 11:21:48;;;;;;;99.88;39.47;;;1.80;99.90;;;;;;5033712;28;20395;-80
2023/12/16 11:24:15;;;;;;;90.90;35.78;;;1.80;99.90;;;;;;5032452;28;20104;-80
2023/12/16 11:26:40;;;;;;;80.97;36.35;;;1.90;99.90;;;;;;5029302;28;20036;-80
2023/12/16 11:29:06;;;;;;;65.47;28.88;;;1.90;99.90;;;;;;5025087;28;20402;-82
2023/12/16 11:31:32;;;;;;;69.72;32.33;;;1.90;99.90;;;;;;5028603;28;20018;-81
2023/12/16 11:33:57;;;;;;;83.55;36.85;;;1.90;99.90;;;;;;5028800;28;20048;-80
2023/12/16 11:37:02;;;;;;;61.65;31.55;;;1.90;99.90;;;;;;5024917;28;20049;-81
2023/12/16 11:39:42;;;;;;;74.43;34.17;;;2.00;99.90;;;;;;5050916;28;20123;-80
2023/12/16 11:42:13;;;;;;;65.40;29.48;;;2.00;99.90;;;;;;5023371;28;20514;-80
2023/12/16 11:44:55;;;;;;;58.65;28.30;;;2.00;99.90;;;;;;5033474;28;20385;-79
2023/12/16 11:47:23;;;;;;;59.40;29.42;;;2.00;99.90;;;;;;5032599;28;20048;-79
2023/12/16 11:49:49;;;;;;;59.75;28.15;;;2.00;99.90;;;;;;5023073;28;20029;-79
2023/12/16 11:52:22;;;;;;;55.22;28.00;;;2.10;99.90;;;;;;5030816;28;20514;-79
2023/12/16 11:54:57;;;;;;;83.35;40.80;;;2.10;99.90;;;;;;5031310;28;20017;-79
2023/12/16 11:57:25;;;;;;;418.85;159.00;;;2.10;99.90;;;;;;5024195;28;20029;-79
2023/12/16 11:59:51;;;;;;;365.58;120.60;;;2.10;99.90;;;;;;5031476;28;20028;-80
2023/12/16 12:02:17;;;;;;;147.18;56.33;;;2.10;99.90;;;;;;5045461;28;20083;-80
2023/12/16 12:04:43;;;;;;;102.25;41.80;;;2.10;99.90;;;;;;5028623;28;20028;-79
2023/12/16 12:07:09;;;;;;;72.07;32.25;;;2.20;99.90;;;;;;5033089;28;20025;-79
2023/12/16 12:09:35;;;;;;;63.50;29.52;;;2.20;99.90;;;;;;5031771;28;20021;-79
2023/12/16 12:12:02;;;;;;;79.57;36.58;;;2.20;99.90;;;;;;5030507;28;20018;-79
2023/12/16 12:14:28;;;;;;;67.97;32.80;;;2.20;99.90;;;;;;5024727;28;20122;-79
2023/12/16 12:16:53;;;;;;;61.45;31.10;;;2.30;99.90;;;;;;5030362;28;20112;-80
2023/12/16 12:19:19;;;;;;;64.15;33.15;;;2.20;99.90;;;;;;5027423;28;20032;-79
2023/12/16 12:21:45;;;;;;;61.22;32.03;;;2.30;99.90;;;;;;5030144;28;20025;-80
2023/12/16 12:24:10;;;;;;;60.88;29.95;;;2.30;99.90;;;;;;5023402;28;20479;-80